createdAt,value
2018-04-17T00:01:01.563Z,74.90
2018-04-17T00:03:30.527Z,75.00
2018-04-17T00:06:00.316Z,74.70
2018-04-17T00:08:29.330Z,74.60
2018-04-17T00:10:58.343Z,74.90
2018-04-17T00:13:28.037Z,75.30
2018-04-17T00:15:56.932Z,75.30
2018-04-17T00:18:26.614Z,75.80
2018-04-17T00:20:55.596Z,75.30
2018-04-17T00:23:24.566Z,75.30
2018-04-17T00:25:53.560Z,75.40
2018-04-17T00:28:22.511Z,74.70
2018-04-17T00:30:52.185Z,75.10
2018-04-17T00:33:21.525Z,75.00
2018-04-17T00:35:50.987Z,75.60
2018-04-17T00:38:19.921Z,76.00
2018-04-17T00:40:49.664Z,76.10
2018-04-17T00:43:18.567Z,76.00
2018-04-17T00:45:47.482Z,75.90
2018-04-17T00:48:16.444Z,76.00
2018-04-17T00:50:45.388Z,76.10
2018-04-17T00:53:32.027Z,76.10
2018-04-17T00:56:00.909Z,76.30
2018-04-17T00:58:29.833Z,76.30
2018-04-17T01:00:58.771Z,76.40
2018-04-17T01:03:28.469Z,76.60
2018-04-17T01:05:57.372Z,76.50
2018-04-17T01:08:27.235Z,77.80
2018-04-17T01:10:56.175Z,77.00
2018-04-17T01:13:25.080Z,77.60
2018-04-17T01:15:54.823Z,77.60
2018-04-17T01:18:23.749Z,77.60
2018-04-17T01:20:52.671Z,77.60
2018-04-17T01:23:22.561Z,78.20
2018-04-17T01:25:51.623Z,78.20
2018-04-17T01:28:20.531Z,77.90
2018-04-17T01:30:49.507Z,78.20
2018-04-17T01:33:18.445Z,78.20
2018-04-17T01:35:48.164Z,78.00
2018-04-17T01:38:17.818Z,78.00
2018-04-17T01:40:46.708Z,77.90
2018-04-17T01:43:16.469Z,77.90
2018-04-17T01:45:45.392Z,77.90
2018-04-17T01:48:14.283Z,78.50
2018-04-17T01:50:43.184Z,78.40
2018-04-17T01:53:12.204Z,78.70
2018-04-17T01:55:41.120Z,78.70
2018-04-17T01:58:10.026Z,78.60
2018-04-17T02:00:39.744Z,78.60
2018-04-17T02:03:08.665Z,78.60
2018-04-17T02:05:37.581Z,78.70
2018-04-17T02:08:06.578Z,78.60
2018-04-17T02:10:35.567Z,78.60
2018-04-17T02:13:04.460Z,78.40
2018-04-17T02:15:33.401Z,78.50
2018-04-17T02:18:02.301Z,78.50
2018-04-17T02:20:31.396Z,78.40
2018-04-17T02:23:00.325Z,78.40
2018-04-17T02:25:29.255Z,78.30
2018-04-17T02:27:58.926Z,78.20
2018-04-17T02:30:27.913Z,78.10
2018-04-17T02:32:56.872Z,78.60
2018-04-17T02:35:25.828Z,78.20
2018-04-17T02:37:55.509Z,78.10
2018-04-17T02:40:24.444Z,78.00
2018-04-17T02:42:53.404Z,78.20
2018-04-17T02:45:22.416Z,77.60
2018-04-17T02:47:51.317Z,77.90
2018-04-17T02:50:21.044Z,78.10
2018-04-17T02:52:50.073Z,78.00
2018-04-17T02:55:18.964Z,78.10
2018-04-17T02:57:47.868Z,78.30
2018-04-17T03:00:17.564Z,78.10
2018-04-17T03:02:46.497Z,78.10
2018-04-17T03:05:15.470Z,77.90
2018-04-17T03:07:44.470Z,77.70
2018-04-17T03:10:13.808Z,77.90
2018-04-17T03:12:43.317Z,78.40
2018-04-17T03:15:12.295Z,78.50
2018-04-17T03:17:41.193Z,78.70
2018-04-17T03:20:10.095Z,78.70
2018-04-17T03:22:39.147Z,79.10
2018-04-17T03:25:08.213Z,78.70
2018-04-17T03:27:37.240Z,78.80
2018-04-17T03:30:06.364Z,78.80
2018-04-17T03:32:35.531Z,78.70
2018-04-17T03:35:05.306Z,78.70
2018-04-17T03:37:34.250Z,78.70
2018-04-17T03:40:03.185Z,78.50
2018-04-17T03:42:32.117Z,79.10
2018-04-17T03:45:01.907Z,79.10
2018-04-17T03:47:30.832Z,79.00
2018-04-17T03:49:59.807Z,79.00
2018-04-17T03:52:28.764Z,79.30
2018-04-17T03:54:57.677Z,79.40
2018-04-17T03:57:26.622Z,78.80
2018-04-17T03:59:55.544Z,78.90
2018-04-17T04:02:24.466Z,78.80
2018-04-17T04:04:53.435Z,78.60
2018-04-17T04:07:22.427Z,78.50
2018-04-17T04:09:51.335Z,78.20
2018-04-17T04:12:20.270Z,79.10
2018-04-17T04:14:49.223Z,78.70
2018-04-17T04:17:36.085Z,78.60
2018-04-17T04:20:22.923Z,79.00
2018-04-17T04:23:09.781Z,78.10
2018-04-17T04:28:47.686Z,78.30
2018-04-17T04:31:16.655Z,78.10
2018-04-17T04:33:45.729Z,78.30
2018-04-17T04:36:14.804Z,78.10
2018-04-17T04:38:43.812Z,78.00
2018-04-17T04:41:12.808Z,78.00
2018-04-17T04:43:42.528Z,78.30
2018-04-17T04:46:11.501Z,78.20
2018-04-17T04:48:40.796Z,77.60
2018-04-17T04:51:10.053Z,77.40
2018-04-17T04:53:39.747Z,77.70
2018-04-17T04:56:08.881Z,77.60
2018-04-17T04:58:37.854Z,77.90
2018-04-17T05:01:07.629Z,78.00
2018-04-17T05:03:36.652Z,77.90
2018-04-17T05:06:06.368Z,76.30
2018-04-17T05:08:36.423Z,76.20
2018-04-17T05:11:05.581Z,76.20
2018-04-17T05:13:35.272Z,76.50
2018-04-17T05:16:05.011Z,76.20
2018-04-17T05:18:33.996Z,76.20
2018-04-17T05:21:02.883Z,75.90
2018-04-17T05:23:32.073Z,75.40
2018-04-17T05:26:01.743Z,74.70
2018-04-17T05:28:30.652Z,75.20
2018-04-17T05:30:59.637Z,75.70
2018-04-17T05:33:29.394Z,74.40
2018-04-17T05:35:58.327Z,74.30
2018-04-17T05:38:27.370Z,75.60
2018-04-17T05:40:57.321Z,76.00
2018-04-17T05:43:26.318Z,75.90
2018-04-17T05:45:55.624Z,75.00
2018-04-17T05:48:24.541Z,75.20
2018-04-17T05:50:53.576Z,74.00
2018-04-17T05:53:22.492Z,74.50
2018-04-17T05:55:51.688Z,74.40
2018-04-17T05:58:20.548Z,74.20
2018-04-17T06:00:50.407Z,73.60
2018-04-17T06:03:19.327Z,73.60
2018-04-17T06:05:48.585Z,72.10
2018-04-17T06:08:17.736Z,71.30
2018-04-17T06:10:47.572Z,71.10
2018-04-17T06:13:16.617Z,71.10
2018-04-17T06:15:45.622Z,71.40
2018-04-17T06:18:14.560Z,71.20
2018-04-17T06:20:43.681Z,71.10
2018-04-17T06:23:12.590Z,71.50
2018-04-17T06:25:41.849Z,71.20
2018-04-17T06:28:10.766Z,71.50
2018-04-17T06:30:45.992Z,71.80
2018-04-17T06:33:15.159Z,71.50
2018-04-17T06:35:44.825Z,72.10
2018-04-17T06:38:13.836Z,72.00
2018-04-17T06:40:42.779Z,72.00
2018-04-17T06:43:11.710Z,71.30
2018-04-17T06:45:40.703Z,71.60
2018-04-17T06:48:09.638Z,72.40
2018-04-17T06:50:38.721Z,71.60
2018-04-17T06:53:07.643Z,70.40
2018-04-17T06:55:36.555Z,70.00
2018-04-17T06:58:05.736Z,69.80
2018-04-17T07:00:34.637Z,69.10
2018-04-17T07:03:03.645Z,67.70
2018-04-17T07:05:33.518Z,66.30
2018-04-17T07:08:02.456Z,66.20
2018-04-17T07:10:31.394Z,66.50
2018-04-17T07:13:00.405Z,66.30
2018-04-17T07:15:29.352Z,66.60
2018-04-17T07:17:59.320Z,69.00
2018-04-17T07:20:28.218Z,68.90
2018-04-17T07:22:57.180Z,65.80
2018-04-17T07:25:26.117Z,64.90
2018-04-17T07:27:55.030Z,66.10
2018-04-17T07:30:24.756Z,66.10
2018-04-17T07:32:53.671Z,66.10
2018-04-17T07:35:22.704Z,64.50
2018-04-17T07:37:51.651Z,63.20
2018-04-17T07:40:20.620Z,63.50
2018-04-17T07:42:50.304Z,64.00
2018-04-17T07:45:19.224Z,63.80
2018-04-17T07:51:01.244Z,64.80
2018-04-17T07:53:30.917Z,62.20
2018-04-17T07:55:59.828Z,62.20
2018-04-17T07:58:29.579Z,61.70
2018-04-17T08:00:58.452Z,61.70
2018-04-17T08:03:27.356Z,61.50
2018-04-17T08:05:56.352Z,59.40
2018-04-17T08:08:25.371Z,57.20
2018-04-17T08:10:55.007Z,55.20
2018-04-17T08:13:23.948Z,54.00
2018-04-17T08:15:52.937Z,52.70
2018-04-17T08:18:22.069Z,52.50
2018-04-17T08:20:51.183Z,52.70
2018-04-17T08:23:21.057Z,53.00
2018-04-17T08:25:50.244Z,52.90
2018-04-17T08:28:19.183Z,52.50
2018-04-17T08:30:48.851Z,49.60
2018-04-17T08:33:17.827Z,49.50
2018-04-17T08:35:46.759Z,48.10
2018-04-17T08:38:15.653Z,47.30
2018-04-17T08:40:44.572Z,46.90
2018-04-17T08:43:14.241Z,47.50
2018-04-17T08:45:43.362Z,47.50
2018-04-17T08:48:13.057Z,47.70
2018-04-17T08:50:41.965Z,47.70
2018-04-17T08:53:11.025Z,50.30
2018-04-17T08:55:40.136Z,51.90
2018-04-17T08:58:09.140Z,52.70
2018-04-17T09:00:38.707Z,51.80
2018-04-17T09:03:07.580Z,52.70
2018-04-17T09:05:36.658Z,53.40
2018-04-17T09:08:06.327Z,53.90
2018-04-17T09:10:35.233Z,53.90
2018-04-17T09:13:04.173Z,54.50
2018-04-17T09:15:33.083Z,54.10
2018-04-17T09:18:01.993Z,54.40
2018-04-17T09:20:31.758Z,54.40
2018-04-17T09:23:00.700Z,54.40
2018-04-17T09:25:29.609Z,54.50
2018-04-17T09:27:59.258Z,55.50
2018-04-17T09:30:28.153Z,55.40
2018-04-17T09:32:57.060Z,55.70
2018-04-17T09:35:25.952Z,55.90
2018-04-17T09:37:54.856Z,57.00
2018-04-17T09:40:24.025Z,56.60
2018-04-17T09:42:53.060Z,56.80
2018-04-17T09:45:21.975Z,56.50
2018-04-17T09:47:50.902Z,56.50
2018-04-17T09:50:19.795Z,57.20
2018-04-17T09:52:48.714Z,57.10
2018-04-17T09:55:17.613Z,57.40
2018-04-17T09:57:46.538Z,57.00
2018-04-17T10:00:16.258Z,56.40
2018-04-17T10:02:45.201Z,56.30
2018-04-17T10:05:15.045Z,53.10
2018-04-17T10:07:44.719Z,51.90
2018-04-17T10:10:13.708Z,51.90
2018-04-17T10:12:42.738Z,49.60
2018-04-17T10:15:12.573Z,47.00
2018-04-17T10:17:41.606Z,47.00
2018-04-17T10:20:10.522Z,45.90
2018-04-17T10:22:39.535Z,46.40
2018-04-17T10:25:08.517Z,45.50
2018-04-17T10:27:38.191Z,46.60
2018-04-17T10:30:07.159Z,46.60
2018-04-17T10:32:36.103Z,47.40
2018-04-17T10:35:05.900Z,49.00
2018-04-17T10:37:35.129Z,49.00
2018-04-17T10:40:42.802Z,50.60
2018-04-17T10:43:12.469Z,50.40
2018-04-17T10:45:41.780Z,49.30
2018-04-17T10:48:10.896Z,47.50
2018-04-17T10:50:41.152Z,47.50
2018-04-17T10:53:11.390Z,48.60
2018-04-17T10:55:40.450Z,48.60
2018-04-17T10:58:10.147Z,49.00
2018-04-17T11:00:39.465Z,48.40
2018-04-17T11:03:08.510Z,48.50
2018-04-17T11:05:37.403Z,48.60
2018-04-17T11:08:06.329Z,47.80
2018-04-17T11:10:35.233Z,47.70
2018-04-17T11:13:04.924Z,47.70
2018-04-17T11:15:33.845Z,47.70
2018-04-17T11:18:03.735Z,45.30
2018-04-17T11:20:32.947Z,45.30
2018-04-17T11:23:02.647Z,47.60
2018-04-17T11:25:31.569Z,47.60
2018-04-17T11:28:00.559Z,47.40
2018-04-17T11:30:29.495Z,46.70
2018-04-17T11:32:58.576Z,46.50
2018-04-17T11:35:27.498Z,46.10
2018-04-17T11:37:56.396Z,45.40
2018-04-17T11:40:25.323Z,45.90
2018-04-17T11:42:54.703Z,45.60
2018-04-17T11:45:23.562Z,45.90
2018-04-17T11:47:52.652Z,46.40
2018-04-17T11:50:21.579Z,46.70
2018-04-17T11:52:50.494Z,47.00
2018-04-17T11:55:19.665Z,47.30
2018-04-17T11:57:49.311Z,46.90
2018-04-17T12:00:18.256Z,46.90
2018-04-17T12:02:47.156Z,47.70
2018-04-17T12:05:16.410Z,47.30
2018-04-17T12:07:45.371Z,45.70
2018-04-17T12:10:14.240Z,46.00
2018-04-17T12:12:43.936Z,46.30
2018-04-17T12:15:12.880Z,46.20
2018-04-17T12:17:41.842Z,47.00
2018-04-17T12:20:11.485Z,47.50
2018-04-17T12:22:40.484Z,47.50
2018-04-17T12:25:09.359Z,46.70
2018-04-17T12:27:38.242Z,46.10
2018-04-17T12:30:07.329Z,46.50
2018-04-17T12:32:36.215Z,47.20
2018-04-17T12:35:05.127Z,46.50
2018-04-17T12:37:34.016Z,46.60
2018-04-17T12:40:02.908Z,46.20
2018-04-17T12:42:31.823Z,46.20
2018-04-17T12:45:00.865Z,44.80
2018-04-17T12:47:30.100Z,45.50
2018-04-17T12:49:59.048Z,45.90
2018-04-17T12:52:28.017Z,46.50
2018-04-17T12:54:56.955Z,46.50
2018-04-17T12:57:25.839Z,46.10
2018-04-17T12:59:55.470Z,47.20
2018-04-17T13:02:24.775Z,47.60
2018-04-17T13:04:53.822Z,47.70
2018-04-17T13:07:23.799Z,48.00
2018-04-17T13:09:52.800Z,47.30
2018-04-17T13:12:21.815Z,47.70
2018-04-17T13:14:50.732Z,47.50
2018-04-17T13:17:19.613Z,48.00
2018-04-17T13:19:49.965Z,48.00
2018-04-17T13:22:18.969Z,47.90
2018-04-17T13:24:48.064Z,46.80
2018-04-17T13:27:17.019Z,46.70
2018-04-17T13:29:46.679Z,46.20
2018-04-17T13:32:15.643Z,46.10
2018-04-17T13:34:44.602Z,46.30
2018-04-17T13:37:13.565Z,46.20
2018-04-17T13:39:42.472Z,50.60
2018-04-17T13:42:12.165Z,46.20
2018-04-17T13:44:41.435Z,46.20
2018-04-17T13:47:10.333Z,46.20
2018-04-17T13:49:39.492Z,46.90
2018-04-17T13:52:09.193Z,46.50
2018-04-17T13:54:38.854Z,46.80
2018-04-17T13:57:07.762Z,46.80
2018-04-17T13:59:37.155Z,47.60
2018-04-17T14:02:06.331Z,47.10
2018-04-17T14:04:35.304Z,46.60
2018-04-17T14:07:05.143Z,46.30
2018-04-17T14:09:34.066Z,46.10
2018-04-17T14:12:03.770Z,46.30
2018-04-17T14:14:32.758Z,46.30
2018-04-17T14:17:01.882Z,46.70
2018-04-17T14:19:31.586Z,47.30
2018-04-17T14:22:01.386Z,47.60
2018-04-17T14:24:30.287Z,47.40
2018-04-17T14:26:59.291Z,47.50
2018-04-17T14:29:29.134Z,48.50
2018-04-17T14:31:57.993Z,48.50
2018-04-17T14:34:27.668Z,48.20
2018-04-17T14:36:56.630Z,48.20
2018-04-17T14:39:25.559Z,48.50
2018-04-17T14:41:55.158Z,48.50
2018-04-17T14:44:24.361Z,48.10
2018-04-17T14:46:54.236Z,47.80
2018-04-17T14:49:23.324Z,47.80
2018-04-17T14:51:52.647Z,47.90
2018-04-17T14:54:21.690Z,48.10
2018-04-17T14:56:51.527Z,48.90
2018-04-17T14:59:20.514Z,48.80
2018-04-17T15:01:49.470Z,48.20
2018-04-17T15:04:18.385Z,48.50
2018-04-17T15:06:48.133Z,47.70
2018-04-17T15:09:17.084Z,47.70
2018-04-17T15:11:46.887Z,47.40
2018-04-17T15:14:16.698Z,47.70
2018-04-17T15:16:45.585Z,47.20
2018-04-17T15:19:14.521Z,47.30
2018-04-17T15:21:47.198Z,47.40
2018-04-17T15:24:16.059Z,48.10
2018-04-17T15:26:45.752Z,48.20
2018-04-17T15:29:15.484Z,48.50
2018-04-17T15:31:46.016Z,49.00
2018-04-17T15:34:14.989Z,49.00
2018-04-17T15:36:44.359Z,49.10
2018-04-17T15:39:13.599Z,49.30
2018-04-17T15:41:43.284Z,48.10
2018-04-17T15:44:12.212Z,48.10
2018-04-17T15:46:42.102Z,49.60
2018-04-17T15:49:11.825Z,49.70
2018-04-17T15:51:41.744Z,49.60
2018-04-17T15:54:11.112Z,49.50
2018-04-17T15:56:40.059Z,49.60
2018-04-17T15:59:09.000Z,50.00
2018-04-17T16:01:37.962Z,49.80
2018-04-17T16:04:07.209Z,50.20
2018-04-17T16:06:37.058Z,50.40
2018-04-17T16:09:07.107Z,50.40
2018-04-17T16:11:36.471Z,50.50
2018-04-17T16:14:05.539Z,50.70
2018-04-17T16:16:35.239Z,50.10
2018-04-17T16:19:04.345Z,50.00
2018-04-17T16:21:34.015Z,49.70
2018-04-17T16:24:02.937Z,49.60
2018-04-17T16:26:31.874Z,49.60
2018-04-17T16:29:01.023Z,49.00
2018-04-17T16:31:30.913Z,48.10
2018-04-17T16:33:59.831Z,48.10
2018-04-17T16:36:28.763Z,48.50
2018-04-17T16:38:58.069Z,49.00
2018-04-17T16:41:27.044Z,49.70
2018-04-17T16:43:55.963Z,49.60
2018-04-17T16:46:24.984Z,49.50
2018-04-17T16:48:54.100Z,50.00
2018-04-17T16:51:23.372Z,50.10
2018-04-17T16:53:52.268Z,50.20
2018-04-17T16:56:21.530Z,50.20
2018-04-17T16:58:50.468Z,50.10
2018-04-17T17:01:19.341Z,50.10
2018-04-17T17:03:48.446Z,49.90
2018-04-17T17:06:18.285Z,49.60
2018-04-17T17:08:47.243Z,49.60
2018-04-17T17:11:16.154Z,49.60
2018-04-17T17:13:46.183Z,50.30
2018-04-17T17:16:16.024Z,50.00
2018-04-17T17:18:45.822Z,49.90
2018-04-17T17:21:15.729Z,50.60
2018-04-17T17:23:45.396Z,50.70
2018-04-17T17:26:14.506Z,50.70
2018-04-17T17:28:43.647Z,50.50
2018-04-17T17:31:12.576Z,50.60
2018-04-17T17:33:41.614Z,51.20
2018-04-17T17:36:10.532Z,51.10
2018-04-17T17:38:39.485Z,51.40
2018-04-17T17:41:08.463Z,51.20
2018-04-17T17:43:38.665Z,51.70
2018-04-17T17:46:07.609Z,51.60
2018-04-17T17:48:36.593Z,51.70
2018-04-17T17:51:06.315Z,52.70
2018-04-17T17:53:35.242Z,52.60
2018-04-17T17:56:04.244Z,52.80
2018-04-17T17:58:33.450Z,52.60
2018-04-17T18:01:02.414Z,53.00
2018-04-17T18:03:31.376Z,53.20
2018-04-17T18:06:01.464Z,53.10
2018-04-17T18:08:30.382Z,53.20
2018-04-17T18:11:00.368Z,53.20
2018-04-17T18:13:29.578Z,53.20
2018-04-17T18:15:58.631Z,53.30
2018-04-17T18:18:28.115Z,53.10
2018-04-17T18:20:57.278Z,53.20
2018-04-17T18:23:26.988Z,53.30
2018-04-17T18:25:56.993Z,53.90
2018-04-17T18:28:26.259Z,53.90
2018-04-17T18:30:55.398Z,54.00
2018-04-17T18:33:25.110Z,54.10
2018-04-17T18:35:54.017Z,54.10
2018-04-17T18:38:23.837Z,53.90
2018-04-17T18:40:52.842Z,53.90
2018-04-17T18:43:21.883Z,53.80
2018-04-17T18:45:50.828Z,53.90
2018-04-17T18:48:19.896Z,54.10
2018-04-17T18:50:48.922Z,54.00
2018-04-17T18:53:17.859Z,53.80
2018-04-17T18:55:46.957Z,54.50
2018-04-17T18:58:15.959Z,54.20
2018-04-17T19:00:45.649Z,54.90
2018-04-17T19:03:14.693Z,54.30
2018-04-17T19:05:43.666Z,54.10
2018-04-17T19:08:13.414Z,54.10
2018-04-17T19:10:42.368Z,54.00
2018-04-17T19:13:11.393Z,55.20
2018-04-17T19:15:40.666Z,54.20
2018-04-17T19:18:09.950Z,54.50
2018-04-17T19:20:39.642Z,54.40
2018-04-17T19:23:08.678Z,54.40
2018-04-17T19:25:37.641Z,54.30
2018-04-17T19:28:07.344Z,54.10
2018-04-17T19:30:37.107Z,54.70
2018-04-17T19:33:06.094Z,54.70
2018-04-17T19:35:35.007Z,54.10
2018-04-17T19:38:04.154Z,54.50
2018-04-17T19:40:33.970Z,55.00
2018-04-17T19:43:02.987Z,55.00
2018-04-17T19:45:32.041Z,54.80
2018-04-17T19:48:00.929Z,55.00
2018-04-17T19:50:30.096Z,55.00
2018-04-17T19:53:00.076Z,55.30
2018-04-17T19:55:28.990Z,54.80
2018-04-17T19:57:58.483Z,54.70
2018-04-17T20:00:27.479Z,55.20
2018-04-17T20:02:56.424Z,54.60
2018-04-17T20:05:25.740Z,55.70
2018-04-17T20:07:55.920Z,55.20
2018-04-17T20:10:25.338Z,55.20
2018-04-17T20:12:54.252Z,55.50
2018-04-17T20:15:23.218Z,56.90
2018-04-17T20:17:52.157Z,56.80
2018-04-17T20:20:21.223Z,56.70
2018-04-17T20:22:50.201Z,56.10
2018-04-17T20:25:19.445Z,55.90
2018-04-17T20:27:48.409Z,55.70
2018-04-17T20:30:18.117Z,54.60
2018-04-17T20:32:47.820Z,54.80
2018-04-17T20:35:17.571Z,54.30
2018-04-17T20:37:46.584Z,54.30
2018-04-17T20:40:15.488Z,54.90
2018-04-17T20:42:44.788Z,54.10
2018-04-17T20:45:14.183Z,54.40
2018-04-17T20:47:44.025Z,54.90
2018-04-17T20:50:13.770Z,54.70
2018-04-17T20:52:42.945Z,54.70
2018-04-17T20:55:11.972Z,54.80
2018-04-17T20:57:40.924Z,54.60
2018-04-17T21:00:10.850Z,54.50
2018-04-17T21:02:40.050Z,54.60
2018-04-17T21:05:09.061Z,54.90
2018-04-17T21:07:38.027Z,54.60
2018-04-17T21:10:06.965Z,54.80
2018-04-17T21:12:35.956Z,54.00
2018-04-17T21:15:04.912Z,54.30
2018-04-17T21:17:33.993Z,54.70
2018-04-17T21:20:03.716Z,54.30
2018-04-17T21:22:33.663Z,54.80
2018-04-17T21:25:02.685Z,54.80
2018-04-17T21:27:31.649Z,55.60
2018-04-17T21:30:00.984Z,54.90
2018-04-17T21:32:29.975Z,55.00
2018-04-17T21:34:58.910Z,55.00
2018-04-17T21:37:27.868Z,55.10
2018-04-17T21:39:57.214Z,55.00
2018-04-17T21:42:26.149Z,54.90
2018-04-17T21:44:55.165Z,55.00
2018-04-17T21:47:24.504Z,55.00
2018-04-17T21:49:53.441Z,55.00
2018-04-17T21:52:22.365Z,55.20
2018-04-17T21:54:51.375Z,55.20
2018-04-17T21:57:20.264Z,55.00
2018-04-17T21:59:49.199Z,55.00
2018-04-17T22:02:18.141Z,55.10
2018-04-17T22:04:47.083Z,55.10
2018-04-17T22:07:16.085Z,55.20
2018-04-17T22:09:45.202Z,55.20
2018-04-17T22:12:14.879Z,55.30
2018-04-17T22:14:43.794Z,55.20
2018-04-17T22:17:13.212Z,55.20
2018-04-17T22:19:43.001Z,55.00
2018-04-17T22:22:11.939Z,55.00
2018-04-17T22:24:41.081Z,55.30
2018-04-17T22:27:09.984Z,54.90
2018-04-17T22:29:38.880Z,55.20
2018-04-17T22:32:07.779Z,55.10
2018-04-17T22:34:36.894Z,55.10
2018-04-17T22:37:06.146Z,55.50
2018-04-17T22:39:35.208Z,55.30
2018-04-17T22:42:04.332Z,55.20
2018-04-17T22:44:33.279Z,55.30
2018-04-17T22:47:02.511Z,55.60
2018-04-17T22:49:31.466Z,55.60
2018-04-17T22:52:00.474Z,55.20
2018-04-17T22:54:29.429Z,55.40
2018-04-17T22:56:58.472Z,55.60
2018-04-17T22:59:27.448Z,55.50
2018-04-17T23:01:56.411Z,55.40
2018-04-17T23:04:25.301Z,55.50
2018-04-17T23:06:55.005Z,55.80
2018-04-17T23:09:24.679Z,55.90
2018-04-17T23:11:53.617Z,55.90
2018-04-17T23:14:23.366Z,56.50
2018-04-17T23:16:52.266Z,56.50
2018-04-17T23:19:21.185Z,56.80
2018-04-17T23:21:50.072Z,57.20
2018-04-17T23:24:18.976Z,57.80
2018-04-17T23:26:47.989Z,57.50
2018-04-17T23:29:16.866Z,57.70
2018-04-17T23:31:45.828Z,57.70
2018-04-17T23:34:14.789Z,58.00
2018-04-17T23:36:43.848Z,58.10
2018-04-17T23:39:13.271Z,58.20
2018-04-17T23:41:42.180Z,59.10
2018-04-17T23:44:11.165Z,58.90
2018-04-17T23:46:40.102Z,59.40
2018-04-17T23:49:09.085Z,59.30
2018-04-17T23:51:38.044Z,59.30
2018-04-17T23:54:07.004Z,59.40
2018-04-17T23:56:36.714Z,59.90
2018-04-17T23:59:06.496Z,60.30
